createdAt,value
2023-03-20T00:01:13.779Z,18.83
2023-03-20T00:03:43.527Z,17.88
2023-03-20T00:06:16.931Z,17.45
2023-03-20T00:08:46.901Z,18.75
2023-03-20T00:11:29.168Z,15.52
2023-03-20T00:13:59.065Z,18.85
2023-03-20T00:16:32.812Z,17.88
2023-03-20T00:19:03.304Z,17.67
2023-03-20T00:21:32.094Z,15.07
2023-03-20T00:24:00.760Z,15.52
2023-03-20T00:26:34.819Z,16.23
2023-03-20T00:29:04.221Z,12.90
2023-03-20T00:31:34.507Z,15.00
2023-03-20T00:34:06.621Z,15.40
2023-03-20T00:36:35.132Z,13.95
2023-03-20T00:39:04.680Z,14.23
2023-03-20T00:41:36.954Z,14.23
2023-03-20T00:44:13.956Z,14.77
2023-03-20T00:46:42.645Z,15.30
2023-03-20T00:49:13.384Z,17.70
2023-03-20T00:51:42.490Z,17.75
2023-03-20T00:54:14.513Z,15.48
2023-03-20T00:56:45.836Z,17.90
2023-03-20T00:59:19.305Z,21.67
2023-03-20T01:01:47.671Z,15.50
2023-03-20T01:04:21.302Z,16.23
2023-03-20T01:06:49.680Z,16.08
2023-03-20T01:09:18.216Z,15.60
2023-03-20T01:11:47.344Z,15.73
2023-03-20T01:14:18.066Z,15.98
2023-03-20T01:16:46.497Z,16.63
2023-03-20T01:19:20.544Z,18.20
2023-03-20T01:21:50.755Z,16.50
2023-03-20T01:24:19.132Z,16.45
2023-03-20T01:26:47.792Z,15.85
2023-03-20T01:29:19.826Z,13.55
2023-03-20T01:31:48.469Z,14.55
2023-03-20T01:34:17.914Z,14.40
2023-03-20T01:36:50.228Z,15.93
2023-03-20T01:39:19.292Z,16.75
2023-03-20T01:41:49.073Z,16.42
2023-03-20T01:44:22.376Z,16.05
2023-03-20T01:46:55.593Z,15.32
2023-03-20T01:50:01.260Z,16.50
2023-03-20T01:52:31.227Z,14.68
2023-03-20T01:54:59.626Z,15.73
2023-03-20T01:57:28.357Z,17.08
2023-03-20T02:00:01.687Z,14.35
2023-03-20T02:02:33.360Z,13.93
2023-03-20T02:05:06.057Z,16.25
2023-03-20T02:07:36.720Z,14.95
2023-03-20T02:10:10.280Z,14.35
2023-03-20T02:13:02.987Z,18.17
2023-03-20T02:15:38.299Z,18.48
2023-03-20T02:18:13.067Z,18.63
2023-03-20T02:20:57.690Z,14.98
2023-03-20T02:23:51.089Z,17.20
2023-03-20T02:26:37.918Z,18.20
2023-03-20T02:29:39.032Z,17.92
2023-03-20T02:32:51.312Z,15.27
2023-03-20T02:35:45.897Z,20.52
2023-03-20T02:38:35.662Z,15.73
2023-03-20T02:41:14.740Z,15.25
2023-03-20T02:43:50.147Z,14.77
2023-03-20T02:46:28.060Z,17.42
2023-03-20T02:49:02.568Z,15.40
2023-03-20T02:51:37.446Z,17.88
2023-03-20T02:54:14.263Z,16.35
2023-03-20T02:56:53.178Z,17.05
2023-03-20T02:59:28.217Z,16.13
2023-03-20T03:02:03.004Z,13.63
2023-03-20T03:04:35.927Z,14.18
2023-03-20T03:07:07.021Z,14.82
2023-03-20T03:09:41.451Z,15.70
2023-03-20T03:12:13.837Z,18.25
2023-03-20T03:14:46.295Z,15.10
2023-03-20T03:17:19.666Z,15.90
2023-03-20T03:19:51.706Z,18.02
2023-03-20T03:22:21.427Z,16.92
2023-03-20T03:24:52.732Z,16.08
2023-03-20T03:27:24.829Z,17.63
2023-03-20T03:29:57.437Z,16.98
2023-03-20T03:32:30.054Z,20.70
2023-03-20T03:34:58.916Z,19.35
2023-03-20T03:37:42.598Z,17.73
2023-03-20T03:40:20.822Z,17.67
2023-03-20T03:42:54.952Z,20.40
2023-03-20T03:45:30.577Z,22.27
2023-03-20T03:48:04.337Z,20.13
2023-03-20T03:50:37.260Z,23.73
2023-03-20T03:53:11.543Z,21.25
2023-03-20T03:55:43.980Z,20.83
2023-03-20T03:58:17.417Z,19.58
2023-03-20T04:00:48.139Z,22.40
2023-03-20T04:03:17.187Z,17.75
2023-03-20T04:05:48.348Z,20.67
2023-03-20T04:08:17.427Z,23.23
2023-03-20T04:10:47.402Z,22.83
2023-03-20T04:13:16.512Z,21.95
2023-03-20T04:15:46.266Z,17.85
2023-03-20T04:18:17.708Z,19.77
2023-03-20T04:20:48.469Z,25.58
2023-03-20T04:23:18.126Z,24.77
2023-03-20T04:25:47.965Z,20.48
2023-03-20T04:28:19.580Z,22.13
2023-03-20T04:31:02.930Z,28.25
2023-03-20T04:33:54.320Z,22.52
2023-03-20T04:36:37.943Z,21.17
2023-03-20T04:39:08.710Z,23.08
2023-03-20T04:41:38.416Z,22.88
2023-03-20T04:44:06.776Z,25.65
2023-03-20T04:46:36.302Z,25.90
2023-03-20T04:49:09.118Z,24.75
2023-03-20T04:51:37.469Z,22.83
2023-03-20T04:54:05.710Z,27.85
2023-03-20T04:56:34.079Z,23.17
2023-03-20T04:59:21.483Z,26.10
2023-03-20T05:01:49.809Z,25.23
2023-03-20T05:04:18.226Z,24.92
2023-03-20T05:06:49.223Z,20.48
2023-03-20T05:09:20.174Z,22.05
2023-03-20T05:11:49.787Z,24.05
2023-03-20T05:14:38.120Z,24.90
2023-03-20T05:17:23.117Z,26.08
2023-03-20T05:20:13.469Z,22.92
2023-03-20T05:23:06.297Z,22.70
2023-03-20T05:25:55.000Z,22.73
2023-03-20T05:28:26.190Z,22.60
2023-03-20T05:31:16.371Z,21.73
2023-03-20T05:34:05.407Z,23.08
2023-03-20T05:36:55.877Z,21.63
2023-03-20T05:39:31.165Z,22.33
2023-03-20T05:42:19.616Z,24.05
2023-03-20T05:45:09.068Z,22.90
2023-03-20T05:47:56.482Z,26.88
2023-03-20T05:50:27.859Z,25.35
2023-03-20T05:53:34.336Z,22.25
2023-03-20T05:56:41.108Z,24.92
2023-03-20T05:59:29.746Z,24.15
2023-03-20T06:02:17.448Z,24.13
2023-03-20T06:04:55.789Z,23.63
2023-03-20T06:07:30.411Z,23.45
2023-03-20T06:10:06.670Z,24.83
2023-03-20T06:12:35.106Z,23.83
2023-03-20T06:15:03.534Z,23.20
2023-03-20T06:17:34.938Z,22.13
2023-03-20T06:20:07.385Z,24.20
2023-03-20T06:22:35.735Z,25.00
2023-03-20T06:25:04.099Z,24.88
2023-03-20T06:27:37.265Z,24.27
2023-03-20T06:30:06.186Z,24.38
2023-03-20T06:32:36.812Z,23.15
2023-03-20T06:35:10.248Z,18.17
2023-03-20T06:37:40.451Z,25.08
2023-03-20T06:40:14.523Z,26.02
2023-03-20T06:42:43.551Z,19.58
2023-03-20T06:45:13.379Z,21.25
2023-03-20T06:47:50.918Z,19.45
2023-03-20T06:50:20.853Z,20.70
2023-03-20T06:52:49.387Z,22.25
2023-03-20T06:55:40.843Z,20.35
2023-03-20T06:58:09.259Z,19.63
2023-03-20T07:00:38.640Z,19.73
2023-03-20T07:03:08.883Z,17.92
2023-03-20T07:05:40.436Z,21.98
2023-03-20T07:08:10.893Z,18.92
2023-03-20T07:10:39.676Z,21.73
2023-03-20T07:13:08.076Z,16.75
2023-03-20T07:15:38.750Z,19.85
2023-03-20T07:18:09.020Z,19.10
2023-03-20T07:20:39.293Z,17.13
2023-03-20T07:23:07.516Z,17.60
2023-03-20T07:25:42.810Z,17.88
2023-03-20T07:28:16.661Z,20.88
2023-03-20T07:30:51.311Z,17.77
2023-03-20T07:33:21.144Z,21.55
2023-03-20T07:35:55.305Z,19.05
2023-03-20T07:38:25.632Z,18.58
2023-03-20T07:41:06.751Z,21.45
2023-03-20T07:43:37.387Z,20.40
2023-03-20T07:46:44.598Z,17.85
2023-03-20T07:49:13.066Z,19.35
2023-03-20T07:51:42.692Z,20.58
2023-03-20T07:54:11.055Z,24.80
2023-03-20T07:56:39.455Z,23.85
2023-03-20T07:59:07.878Z,20.05
2023-03-20T08:01:36.171Z,20.65
2023-03-20T08:04:04.597Z,18.85
2023-03-20T08:06:33.279Z,21.33
2023-03-20T08:09:03.271Z,19.60
2023-03-20T08:11:34.207Z,17.60
2023-03-20T08:14:02.735Z,18.70
2023-03-20T08:16:31.043Z,20.67
2023-03-20T08:19:01.474Z,19.70
2023-03-20T08:21:29.978Z,18.23
2023-03-20T08:23:58.742Z,20.67
2023-03-20T08:26:28.443Z,18.33
2023-03-20T08:28:56.756Z,20.85
2023-03-20T08:31:25.065Z,18.02
2023-03-20T08:33:53.456Z,19.88
2023-03-20T08:36:21.813Z,17.20
2023-03-20T08:38:51.033Z,19.73
2023-03-20T08:41:19.961Z,18.73
2023-03-20T08:43:49.684Z,19.83
2023-03-20T08:46:18.033Z,18.50
2023-03-20T08:48:46.327Z,18.08
2023-03-20T08:51:14.817Z,19.10
2023-03-20T08:53:43.076Z,19.52
2023-03-20T08:56:12.190Z,21.05
2023-03-20T08:58:40.656Z,23.52
2023-03-20T09:01:11.621Z,20.42
2023-03-20T09:03:40.012Z,19.27
2023-03-20T09:06:09.710Z,23.77
2023-03-20T09:08:37.768Z,20.63
2023-03-20T09:11:08.137Z,19.98
2023-03-20T09:13:36.514Z,21.65
2023-03-20T09:16:04.898Z,17.75
2023-03-20T09:18:34.360Z,21.60
2023-03-20T09:21:02.406Z,19.52
2023-03-20T09:23:30.434Z,19.65
2023-03-20T09:25:58.576Z,18.10
2023-03-20T09:28:27.173Z,20.67
2023-03-20T09:30:57.598Z,20.35
2023-03-20T09:33:26.267Z,21.48
2023-03-20T09:35:55.673Z,19.13
2023-03-20T09:38:24.422Z,24.60
2023-03-20T09:40:55.205Z,19.27
2023-03-20T09:43:47.767Z,20.27
2023-03-20T09:46:27.249Z,18.85
2023-03-20T09:49:03.219Z,23.15
2023-03-20T09:51:39.381Z,19.30
2023-03-20T09:54:12.686Z,19.38
2023-03-20T09:56:41.162Z,16.02
2023-03-20T09:59:09.250Z,18.02
2023-03-20T10:01:44.923Z,17.80
2023-03-20T10:04:14.440Z,17.40
2023-03-20T10:06:43.925Z,16.52
2023-03-20T10:09:17.717Z,17.77
2023-03-20T10:12:04.076Z,18.80
2023-03-20T10:14:38.456Z,20.23
2023-03-20T10:17:20.779Z,17.05
2023-03-20T10:19:53.465Z,19.42
2023-03-20T10:22:29.261Z,17.08
2023-03-20T10:25:02.804Z,18.60
2023-03-20T10:27:36.098Z,19.15
2023-03-20T10:30:24.556Z,18.50
2023-03-20T10:33:01.305Z,14.57
2023-03-20T10:35:34.337Z,20.17
2023-03-20T10:38:14.218Z,18.05
2023-03-20T10:40:43.460Z,15.65
2023-03-20T10:43:17.847Z,20.27
2023-03-20T10:45:49.688Z,16.30
2023-03-20T10:48:24.850Z,16.10
2023-03-20T10:50:56.181Z,17.52
2023-03-20T10:53:35.744Z,18.40
2023-03-20T10:56:08.082Z,15.95
2023-03-20T10:58:39.642Z,18.30
2023-03-20T11:01:07.884Z,20.13
2023-03-20T11:03:39.821Z,18.55
2023-03-20T11:06:14.640Z,18.23
2023-03-20T11:08:49.319Z,17.73
2023-03-20T11:11:23.688Z,18.90
2023-03-20T11:13:51.897Z,18.45
2023-03-20T11:16:23.133Z,17.25
2023-03-20T11:18:52.559Z,17.98
2023-03-20T11:21:24.181Z,16.27
2023-03-20T11:23:54.239Z,15.48
2023-03-20T11:26:35.755Z,17.85
2023-03-20T11:29:06.316Z,17.60
2023-03-20T11:31:38.903Z,18.27
2023-03-20T11:34:26.398Z,18.83
2023-03-20T11:37:09.633Z,17.83
2023-03-20T11:39:42.188Z,19.33
2023-03-20T11:42:24.696Z,18.58
2023-03-20T11:44:59.677Z,19.65
2023-03-20T11:47:29.672Z,17.17
2023-03-20T11:49:59.566Z,17.75
2023-03-20T11:52:31.059Z,18.92
2023-03-20T11:55:03.252Z,21.42
2023-03-20T11:57:35.280Z,19.70
2023-03-20T12:00:07.324Z,18.85
2023-03-20T12:02:37.358Z,18.52
2023-03-20T12:05:20.742Z,17.65
2023-03-20T12:07:52.158Z,18.17
2023-03-20T12:10:22.974Z,18.95
2023-03-20T12:12:55.629Z,20.60
2023-03-20T12:15:27.116Z,20.63
2023-03-20T12:17:58.447Z,21.88
2023-03-20T12:20:36.869Z,18.77
2023-03-20T12:23:14.575Z,18.67
2023-03-20T12:25:51.561Z,25.10
2023-03-20T12:28:26.002Z,23.17
2023-03-20T12:31:07.292Z,21.75
2023-03-20T12:33:50.518Z,24.08
2023-03-20T12:36:25.478Z,21.30
2023-03-20T12:38:53.605Z,22.92
2023-03-20T12:41:27.697Z,22.02
2023-03-20T12:44:21.340Z,20.20
2023-03-20T12:47:10.954Z,20.60
2023-03-20T12:49:50.139Z,18.85
2023-03-20T12:52:27.124Z,18.08
2023-03-20T12:55:25.837Z,17.65
2023-03-20T12:58:07.266Z,20.02
2023-03-20T13:00:39.025Z,21.83
2023-03-20T13:03:27.668Z,20.83
2023-03-20T13:06:05.963Z,21.92
2023-03-20T13:09:00.357Z,21.02
2023-03-20T13:11:34.784Z,20.08
2023-03-20T13:14:13.270Z,21.17
2023-03-20T13:16:50.722Z,19.92
2023-03-20T13:19:27.296Z,19.30
2023-03-20T13:22:00.183Z,22.23
2023-03-20T13:24:41.403Z,24.88
2023-03-20T13:27:21.313Z,16.77
2023-03-20T13:29:56.129Z,16.85
2023-03-20T13:32:34.059Z,16.15
2023-03-20T13:35:18.629Z,17.30
2023-03-20T13:37:50.545Z,17.30
2023-03-20T13:40:23.126Z,20.90
2023-03-20T13:42:55.778Z,16.98
2023-03-20T13:45:32.379Z,15.93
2023-03-20T13:48:05.708Z,19.08
2023-03-20T13:50:43.137Z,18.08
2023-03-20T13:53:22.530Z,21.60
2023-03-20T13:55:56.254Z,18.33
2023-03-20T13:58:40.426Z,18.52
2023-03-20T14:01:15.961Z,20.25
2023-03-20T14:03:47.127Z,16.92
2023-03-20T14:06:42.119Z,17.95
2023-03-20T14:09:27.628Z,19.98
2023-03-20T14:11:57.835Z,16.52
2023-03-20T14:14:29.267Z,19.05
2023-03-20T14:17:18.019Z,19.95
2023-03-20T14:19:47.170Z,19.35
2023-03-20T14:22:21.294Z,18.05
2023-03-20T14:24:56.074Z,15.88
2023-03-20T14:27:42.956Z,23.45
2023-03-20T14:30:43.562Z,24.33
2023-03-20T14:33:31.605Z,22.88
2023-03-20T14:36:20.532Z,21.20
2023-03-20T14:38:55.217Z,21.50
2023-03-20T14:41:31.592Z,25.67
2023-03-20T14:44:09.777Z,17.67
2023-03-20T14:46:49.368Z,22.10
2023-03-20T14:49:27.690Z,22.25
2023-03-20T14:52:03.497Z,20.88
2023-03-20T14:54:32.299Z,20.38
2023-03-20T14:57:11.141Z,17.00
2023-03-20T14:59:39.594Z,16.35
2023-03-20T15:02:07.673Z,19.10
2023-03-20T15:04:40.247Z,15.98
2023-03-20T15:07:15.748Z,17.75
2023-03-20T15:09:46.549Z,15.07
2023-03-20T15:12:17.863Z,13.77
2023-03-20T15:14:52.328Z,14.80
2023-03-20T15:17:23.540Z,17.08
2023-03-20T15:20:01.600Z,14.25
2023-03-20T15:22:29.665Z,14.77
2023-03-20T15:24:58.822Z,15.23
2023-03-20T15:27:30.706Z,15.48
2023-03-20T15:30:01.514Z,15.85
2023-03-20T15:32:30.404Z,18.75
2023-03-20T15:34:59.886Z,17.17
2023-03-20T15:37:28.447Z,18.30
2023-03-20T15:39:59.230Z,15.35
2023-03-20T15:42:28.521Z,18.75
2023-03-20T15:44:57.881Z,14.25
2023-03-20T15:47:26.872Z,14.40
2023-03-20T15:50:02.661Z,12.63
2023-03-20T15:52:33.829Z,14.35
2023-03-20T15:55:05.499Z,14.00
2023-03-20T15:57:36.149Z,19.50
2023-03-20T16:00:07.445Z,19.70
2023-03-20T16:02:37.187Z,17.33
2023-03-20T16:05:12.828Z,16.92
2023-03-20T16:07:40.877Z,15.68
2023-03-20T16:10:19.421Z,18.17
2023-03-20T16:12:49.743Z,17.20
2023-03-20T16:15:19.543Z,12.80
2023-03-20T16:17:48.838Z,13.68
2023-03-20T16:20:19.562Z,17.65
2023-03-20T16:22:48.157Z,16.80
2023-03-20T16:25:19.423Z,14.07
2023-03-20T16:27:51.595Z,17.58
2023-03-20T16:30:23.504Z,15.70
2023-03-20T16:32:57.402Z,16.25
2023-03-20T16:35:31.045Z,19.73
2023-03-20T16:38:01.316Z,15.40
2023-03-20T16:40:38.315Z,20.73
2023-03-20T16:43:08.794Z,19.85
2023-03-20T16:45:38.349Z,21.42
2023-03-20T16:48:39.927Z,21.75
2023-03-20T16:51:17.671Z,18.30
2023-03-20T16:53:48.726Z,17.13
2023-03-20T16:56:23.081Z,16.85
2023-03-20T16:58:51.409Z,19.40
2023-03-20T17:01:22.015Z,20.42
2023-03-20T17:03:53.846Z,19.45
2023-03-20T17:06:37.534Z,17.75
2023-03-20T17:09:24.905Z,21.88
2023-03-20T17:12:01.191Z,18.13
2023-03-20T17:14:29.323Z,21.05
2023-03-20T17:16:57.990Z,19.02
2023-03-20T17:19:26.625Z,23.17
2023-03-20T17:21:57.705Z,21.45
2023-03-20T17:24:25.892Z,21.98
2023-03-20T17:26:56.230Z,19.98
2023-03-20T17:29:24.340Z,24.65
2023-03-20T17:31:53.038Z,27.50
2023-03-20T17:34:21.303Z,27.60
2023-03-20T17:36:49.626Z,30.40
2023-03-20T17:39:21.588Z,24.13
2023-03-20T17:41:49.763Z,24.88
2023-03-20T17:44:17.740Z,24.92
2023-03-20T17:46:57.810Z,30.05
2023-03-20T17:49:28.039Z,22.95
2023-03-20T17:51:56.760Z,29.60
2023-03-20T17:54:26.324Z,26.85
2023-03-20T18:01:01.632Z,24.10
2023-03-20T18:03:29.918Z,27.90
2023-03-20T18:05:58.308Z,26.42
2023-03-20T18:08:27.440Z,26.35
2023-03-20T18:10:57.024Z,27.60
2023-03-20T18:13:27.120Z,28.20
2023-03-20T18:15:57.922Z,31.70
2023-03-20T18:18:26.477Z,29.35
2023-03-20T18:20:57.283Z,26.17
2023-03-20T18:23:25.338Z,30.05
2023-03-20T18:25:53.424Z,27.25
2023-03-20T18:28:23.475Z,29.48
2023-03-20T18:30:52.026Z,29.02
2023-03-20T18:33:25.201Z,28.70
2023-03-20T18:35:53.472Z,26.95
2023-03-20T18:38:24.491Z,31.95
2023-03-20T18:40:52.807Z,29.08
2023-03-20T18:43:22.213Z,29.25
2023-03-20T18:45:50.251Z,29.80
2023-03-20T18:48:18.496Z,29.75
2023-03-20T18:50:50.934Z,31.17
2023-03-20T18:53:19.612Z,26.95
2023-03-20T18:55:47.626Z,28.83
2023-03-20T18:58:22.868Z,28.05
2023-03-20T19:00:51.726Z,29.92
2023-03-20T19:03:23.696Z,31.58
2023-03-20T19:05:52.493Z,30.98
2023-03-20T19:08:20.818Z,32.70
2023-03-20T19:10:49.559Z,33.05
2023-03-20T19:13:19.663Z,31.65
2023-03-20T19:15:49.483Z,34.15
2023-03-20T19:18:19.614Z,35.20
2023-03-20T19:20:48.837Z,34.55
2023-03-20T19:23:19.634Z,36.90
2023-03-20T19:25:49.216Z,33.38
2023-03-20T19:28:21.821Z,36.53
2023-03-20T19:30:53.984Z,37.63
2023-03-20T19:33:22.143Z,34.72
2023-03-20T19:36:06.081Z,38.22
2023-03-20T19:38:34.888Z,42.30
2023-03-20T19:41:03.886Z,42.10
2023-03-20T19:43:32.553Z,40.95
2023-03-20T19:46:02.031Z,40.78
2023-03-20T19:48:49.247Z,44.35
2023-03-20T19:51:20.874Z,38.40
2023-03-20T19:53:49.501Z,42.97
2023-03-20T19:56:19.290Z,42.90
2023-03-20T19:58:47.816Z,43.00
2023-03-20T20:01:19.905Z,46.17
2023-03-20T20:03:49.623Z,42.45
2023-03-20T20:06:21.205Z,43.42
2023-03-20T20:08:49.974Z,42.47
2023-03-20T20:11:18.445Z,42.50
2023-03-20T20:14:07.255Z,41.97
2023-03-20T20:16:36.638Z,47.83
2023-03-20T20:19:05.397Z,40.95
2023-03-20T20:24:22.346Z,42.58
2023-03-20T20:26:55.220Z,38.25
2023-03-20T20:29:31.753Z,42.97
2023-03-20T20:32:02.012Z,43.65
2023-03-20T20:40:08.783Z,38.10
2023-03-20T20:42:38.134Z,39.60
2023-03-20T20:45:08.785Z,42.60
2023-03-20T20:47:38.564Z,39.30
2023-03-20T20:50:08.796Z,41.65
2023-03-20T20:52:39.170Z,40.20
2023-03-20T20:55:22.200Z,44.83
2023-03-20T20:57:51.939Z,42.88
2023-03-20T21:00:27.552Z,42.33
2023-03-20T21:03:01.085Z,38.38
2023-03-20T21:05:31.084Z,41.30
2023-03-20T21:07:59.145Z,41.08
2023-03-20T21:10:27.488Z,44.45
2023-03-20T21:12:59.557Z,40.22
2023-03-20T21:15:28.236Z,37.28
2023-03-20T21:18:03.402Z,39.03
2023-03-20T21:20:33.945Z,37.67
2023-03-20T21:23:02.340Z,43.33
2023-03-20T21:25:47.781Z,38.13
2023-03-20T21:28:16.550Z,36.58
2023-03-20T21:31:12.190Z,37.20
2023-03-20T21:33:33.578Z,33.38
2023-03-20T21:36:04.131Z,32.50
2023-03-20T21:39:06.807Z,33.45
2023-03-20T21:41:20.727Z,31.67
2023-03-20T21:43:49.753Z,23.60
2023-03-20T21:58:21.289Z,3.83
2023-03-20T22:03:22.384Z,2.90
2023-03-20T22:15:09.240Z,1.95
2023-03-20T22:23:38.507Z,1.55
2023-03-20T22:26:39.173Z,1.98
2023-03-20T22:37:45.925Z,1.98
2023-03-20T22:42:53.282Z,2.00
2023-03-20T22:47:53.602Z,3.33
2023-03-20T22:50:21.683Z,3.80
2023-03-20T22:52:52.554Z,2.95
2023-03-20T22:55:21.055Z,4.25
2023-03-20T22:58:05.935Z,1.98
2023-03-20T23:00:35.450Z,2.05
2023-03-20T23:03:17.146Z,5.45
2023-03-20T23:05:48.293Z,5.72
2023-03-20T23:08:16.462Z,1.27
2023-03-20T23:10:45.976Z,2.63
2023-03-20T23:13:16.429Z,3.38
2023-03-20T23:15:46.568Z,2.53
2023-03-20T23:18:14.835Z,2.03
2023-03-20T23:20:43.181Z,1.70
2023-03-20T23:23:11.478Z,3.63
2023-03-20T23:25:40.609Z,5.15
2023-03-20T23:28:10.902Z,4.10
2023-03-20T23:30:56.743Z,4.72
2023-03-20T23:33:28.332Z,3.42
2023-03-20T23:36:13.999Z,2.20
2023-03-20T23:38:45.969Z,3.03
2023-03-20T23:41:14.457Z,9.05
2023-03-20T23:43:42.712Z,4.45
2023-03-20T23:46:12.536Z,4.82
2023-03-20T23:48:40.730Z,2.55
2023-03-20T23:51:09.120Z,2.25
2023-03-20T23:53:37.176Z,4.55
2023-03-20T23:56:05.601Z,4.38
2023-03-20T23:58:34.709Z,18.45
